»·PEaware :: N739VN KSBP-KSAN

N739VN :: KSBP-KSAN

FLIGHT INFORMATION

Flight Status: Arrived
Operator: Privately registered:
United States
More flights under this callsign
Pilot: Bryan L. (22887)
Aircraft: CESSNA 172 SKYHAWK
(C172)
More flights by this aircraft type
Origin: KSBP San Luis Co Regl
United States
Destination: KSAN San Diego Intl-Lindbergh
United States
More flights between these airports :: More routes between these airports
Route: +RZS V597 MZB
File this flight plan on PilotEdge
Remarks: USING ACTIVE SKY XP WEATHER.
Altitude:
(Current/Filed)
5,000ft
Speed:
(Current/Filed)
115kts
Departed: 11-Jan-19 12:34 PM
Arrived: 11-Jan-19 03:15 PM
Distance/Time
Traveled:
229nm/2:41
Distance/Time
To Go:
Arrived

Flight Plot

Page will automatically refresh every two minutes.


Map Options




Map Legend


Flown Route
Filed Route
Departure Airport
Arrival Airport
Navaid (VOR, NDB)
Fix

Horizontal Profiles

Position Reports

Time Latitude Longitude Heading Altitude Ground
Speed
11-Jan-19 11:39 35.239182 -120.647379 269 216ft 0kts
11-Jan-19 11:40 35.239182 -120.647379 269 216ft 0kts
11-Jan-19 11:41 35.239182 -120.647379 269 216ft 0kts
11-Jan-19 11:42 35.239182 -120.647379 269 216ft 0kts
11-Jan-19 11:43 35.239182 -120.647379 269 216ft 0kts
11-Jan-19 11:44 35.239182 -120.647379 269 216ft 0kts
11-Jan-19 11:44 35.239182 -120.647379 269 216ft 0kts
11-Jan-19 11:46 35.239182 -120.647379 269 216ft 0kts
11-Jan-19 11:47 35.239182 -120.647379 269 216ft 0kts
11-Jan-19 11:48 35.239182 -120.647379 269 216ft 0kts
11-Jan-19 11:49 35.239182 -120.647379 269 216ft 0kts
11-Jan-19 11:49 35.239182 -120.647379 269 216ft 0kts
11-Jan-19 11:50 35.239182 -120.647379 269 216ft 0kts
11-Jan-19 11:51 35.239182 -120.647379 269 216ft 0kts
11-Jan-19 11:52 35.239182 -120.647379 269 216ft 0kts
11-Jan-19 11:53 35.239182 -120.647379 269 216ft 0kts
11-Jan-19 11:54 35.239182 -120.647379 269 216ft 0kts
11-Jan-19 11:55 35.239182 -120.647379 269 216ft 0kts
11-Jan-19 11:56 35.239182 -120.647379 269 216ft 0kts
11-Jan-19 11:57 35.239182 -120.647379 269 216ft 0kts
11-Jan-19 11:58 35.239182 -120.647379 269 216ft 0kts
11-Jan-19 11:59 35.239182 -120.647379 269 216ft 0kts
11-Jan-19 12:00 35.239182 -120.647379 269 216ft 0kts
11-Jan-19 12:01 35.239182 -120.647379 269 216ft 0kts
11-Jan-19 12:02 35.239182 -120.647379 269 216ft 0kts
11-Jan-19 12:03 35.239182 -120.647379 269 216ft 0kts
11-Jan-19 12:04 35.239182 -120.647379 269 216ft 0kts
11-Jan-19 12:05 35.239182 -120.647379 269 216ft 0kts
11-Jan-19 12:06 35.239182 -120.647379 269 216ft 0kts
11-Jan-19 12:07 35.239182 -120.647379 269 216ft 0kts
11-Jan-19 12:08 35.239182 -120.647379 269 216ft 0kts
11-Jan-19 12:09 35.239182 -120.647379 269 216ft 0kts
11-Jan-19 12:10 35.239182 -120.647379 269 216ft 0kts
11-Jan-19 12:11 35.239182 -120.647379 269 216ft 0kts
11-Jan-19 12:12 35.239182 -120.647379 269 216ft 0kts
11-Jan-19 12:13 35.239182 -120.647379 269 216ft 0kts
11-Jan-19 12:14 35.239182 -120.647379 269 216ft 0kts
11-Jan-19 12:15 35.239182 -120.647379 269 216ft 0kts
11-Jan-19 12:16 35.239182 -120.647379 269 216ft 0kts
11-Jan-19 12:17 35.239182 -120.647379 269 216ft 0kts
11-Jan-19 12:18 35.239182 -120.647379 269 216ft 0kts
11-Jan-19 12:19 35.239182 -120.647379 269 216ft 0kts
11-Jan-19 12:20 35.239182 -120.647379 269 216ft 0kts
11-Jan-19 12:21 35.239182 -120.647379 269 216ft 0kts
11-Jan-19 12:22 35.239182 -120.647379 269 216ft 0kts
11-Jan-19 12:23 35.239182 -120.647379 269 216ft 0kts
11-Jan-19 12:24 35.239182 -120.647379 269 216ft 0kts
11-Jan-19 12:25 35.239182 -120.647379 269 216ft 0kts
11-Jan-19 12:26 35.239182 -120.647379 269 216ft 0kts
11-Jan-19 12:27 35.239182 -120.647379 269 216ft 0kts
11-Jan-19 12:28 35.239182 -120.647379 269 216ft 0kts
11-Jan-19 12:29 35.239182 -120.647379 269 216ft 0kts
11-Jan-19 12:30 35.239563 -120.647691 22 216ft 9kts
11-Jan-19 12:31 35.240403 -120.647734 29 216ft 0kts
11-Jan-19 12:32 35.240406 -120.647731 29 216ft 0kts
11-Jan-19 12:33 35.236545 -120.639715 126 304ft 68kts
11-Jan-19 12:34 35.224759 -120.629421 196 877ft 62kts
11-Jan-19 12:35 35.206551 -120.636736 193 1325ft 71kts
11-Jan-19 12:36 35.188387 -120.644382 193 1880ft 70kts
11-Jan-19 12:37 35.170707 -120.652414 193 2423ft 65kts
11-Jan-19 12:38 35.155574 -120.660534 194 2730ft 68kts
11-Jan-19 12:39 35.133658 -120.671635 194 2984ft 97kts
11-Jan-19 12:40 35.107180 -120.683980 193 3367ft 100kts
11-Jan-19 12:41 35.083891 -120.690301 142 3951ft 72kts
11-Jan-19 12:42 35.079878 -120.669337 106 4305ft 60kts
11-Jan-19 12:43 35.075780 -120.645005 115 4479ft 77kts
11-Jan-19 12:44 35.068634 -120.619478 118 4844ft 77kts
11-Jan-19 12:45 35.063006 -120.597964 116 5161ft 65kts
11-Jan-19 12:46 35.060284 -120.577685 114 5256ft 62kts
11-Jan-19 12:47 35.056102 -120.555023 114 5302ft 66kts
11-Jan-19 12:48 35.048057 -120.534148 143 5309ft 76kts
11-Jan-19 12:49 35.035219 -120.512832 116 5566ft 85kts
11-Jan-19 12:50 35.027789 -120.484354 118 5861ft 89kts
11-Jan-19 12:51 35.021436 -120.457971 117 6165ft 79kts
11-Jan-19 12:52 35.014554 -120.433317 121 6437ft 74kts
11-Jan-19 12:53 35.007117 -120.411699 123 6625ft 70kts
11-Jan-19 12:54 34.998542 -120.387506 118 6704ft 81kts
11-Jan-19 12:55 34.991210 -120.364003 115 6969ft 69kts
11-Jan-19 12:56 34.988590 -120.341903 125 7061ft 65kts
11-Jan-19 12:57 34.978121 -120.322201 139 7070ft 69kts
11-Jan-19 12:58 34.965857 -120.306142 147 7257ft 59kts
11-Jan-19 12:59 34.952162 -120.292431 148 7336ft 65kts
11-Jan-19 13:00 34.937697 -120.276807 144 7345ft 73kts
11-Jan-19 13:01 34.922216 -120.257912 142 7470ft 80kts
11-Jan-19 13:02 34.906315 -120.238708 140 7662ft 81kts
11-Jan-19 13:03 34.891058 -120.219048 144 7842ft 74kts
11-Jan-19 13:04 34.874684 -120.200959 141 8077ft 84kts
11-Jan-19 13:05 34.859596 -120.182204 144 8256ft 72kts
11-Jan-19 13:06 34.844865 -120.165980 143 8372ft 74kts
11-Jan-19 13:07 34.829407 -120.146187 144 8483ft 82kts
11-Jan-19 13:08 34.813110 -120.127592 145 8604ft 79kts
11-Jan-19 13:09 34.798300 -120.109595 147 8714ft 69kts
11-Jan-19 13:10 34.783322 -120.092931 144 8828ft 76kts
11-Jan-19 13:11 34.768387 -120.072802 142 8939ft 83kts
11-Jan-19 13:12 34.750004 -120.051330 142 8995ft 102kts
11-Jan-19 13:13 34.728578 -120.026093 141 9006ft 109kts
11-Jan-19 13:14 34.707419 -120.001051 141 9006ft 105kts
11-Jan-19 13:15 34.685866 -119.975571 140 9006ft 109kts
11-Jan-19 13:16 34.663991 -119.949679 140 9005ft 110kts
11-Jan-19 13:17 34.645407 -119.928296 140 9006ft 114kts
11-Jan-19 13:18 34.624900 -119.903549 140 9003ft 96kts
11-Jan-19 13:19 34.606057 -119.881379 141 9007ft 97kts
11-Jan-19 13:20 34.585815 -119.857282 140 9023ft 106kts
11-Jan-19 13:21 34.563728 -119.831605 140 9022ft 109kts
11-Jan-19 13:22 34.541705 -119.805630 141 9007ft 110kts
11-Jan-19 13:23 34.519569 -119.779502 139 9004ft 112kts
11-Jan-19 13:24 34.507725 -119.744449 107 9034ft 116kts
11-Jan-19 13:25 34.501102 -119.706478 111 9002ft 107kts
11-Jan-19 13:26 34.495216 -119.673507 110 9005ft 97kts
11-Jan-19 13:27 34.489578 -119.640078 109 9007ft 106kts
11-Jan-19 13:28 34.483341 -119.603457 106 9013ft 114kts
11-Jan-19 13:29 34.476937 -119.565728 108 9007ft 111kts
11-Jan-19 13:30 34.470654 -119.528236 108 8994ft 114kts
11-Jan-19 13:31 34.464647 -119.491136 106 9003ft 112kts
11-Jan-19 13:32 34.458285 -119.453973 107 9006ft 111kts
11-Jan-19 13:33 34.450786 -119.417010 108 9010ft 114kts
11-Jan-19 13:34 34.443749 -119.379360 106 9007ft 114kts
11-Jan-19 13:35 34.436903 -119.341574 107 9004ft 115kts
11-Jan-19 13:36 34.430633 -119.306051 110 9002ft 111kts
11-Jan-19 13:38 34.423764 -119.268020 106 9000ft 121kts
11-Jan-19 13:39 34.417248 -119.229576 108 9008ft 110kts
11-Jan-19 13:40 34.410972 -119.194843 105 9009ft 117kts
11-Jan-19 13:41 34.404967 -119.156143 107 9000ft 116kts
11-Jan-19 13:42 34.398669 -119.119034 108 9007ft 108kts
11-Jan-19 13:43 34.392160 -119.081728 105 9002ft 116kts
11-Jan-19 13:44 34.385729 -119.043389 105 9002ft 116kts
11-Jan-19 13:45 34.379919 -119.010558 105 9016ft 115kts
11-Jan-19 13:46 34.373572 -118.973132 107 9006ft 116kts
11-Jan-19 13:47 34.367196 -118.935373 106 8965ft 114kts
11-Jan-19 13:48 34.360484 -118.898150 108 8989ft 112kts
11-Jan-19 13:49 34.350945 -118.862687 117 9003ft 109kts
11-Jan-19 13:50 34.339075 -118.827748 117 9006ft 112kts
11-Jan-19 13:51 34.327176 -118.792663 118 9032ft 111kts
11-Jan-19 13:52 34.315212 -118.757761 117 9037ft 112kts
11-Jan-19 13:53 34.303427 -118.722359 116 9032ft 115kts
11-Jan-19 13:54 34.291289 -118.687333 115 9030ft 108kts
11-Jan-19 13:55 34.280635 -118.653641 119 9031ft 106kts
11-Jan-19 13:56 34.268960 -118.620710 120 9040ft 105kts
11-Jan-19 13:57 34.256937 -118.587576 114 9033ft 116kts
11-Jan-19 13:57 34.247083 -118.557019 118 9029ft 111kts
11-Jan-19 13:58 34.235196 -118.522347 116 9031ft 113kts
11-Jan-19 13:59 34.223973 -118.489964 115 9031ft 119kts
11-Jan-19 14:01 34.211589 -118.447357 114 9030ft 113kts
11-Jan-19 14:02 34.199643 -118.410711 115 9028ft 119kts
11-Jan-19 14:02 34.189809 -118.378822 113 9026ft 124kts
11-Jan-19 14:03 34.178702 -118.340207 113 9024ft 120kts
11-Jan-19 14:04 34.167967 -118.302570 113 9021ft 113kts
11-Jan-19 14:05 34.154381 -118.271145 148 9017ft 101kts
11-Jan-19 14:06 34.128386 -118.253760 154 9014ft 110kts
11-Jan-19 14:07 34.100553 -118.236217 152 9008ft 113kts
11-Jan-19 14:08 34.071961 -118.219627 153 9006ft 112kts
11-Jan-19 14:09 34.044324 -118.202283 158 9044ft 104kts
11-Jan-19 14:10 34.016488 -118.186273 155 9041ft 110kts
11-Jan-19 14:11 33.987856 -118.170186 156 9009ft 116kts
11-Jan-19 14:12 33.958826 -118.153254 155 9016ft 113kts
11-Jan-19 14:13 33.930678 -118.137138 154 9009ft 110kts
11-Jan-19 14:14 33.902859 -118.120735 151 8998ft 107kts
11-Jan-19 14:15 33.881836 -118.108564 156 8999ft 100kts
11-Jan-19 14:16 33.856458 -118.094072 159 9010ft 107kts
11-Jan-19 14:17 33.828628 -118.077864 156 9005ft 108kts
11-Jan-19 14:18 33.802380 -118.062567 155 9005ft 103kts
11-Jan-19 14:19 33.778384 -118.044660 140 9010ft 108kts
11-Jan-19 14:20 33.758223 -118.021302 138 8999ft 94kts
11-Jan-19 14:21 33.741068 -118.001022 141 9005ft 82kts
11-Jan-19 14:22 33.723824 -117.981345 138 9003ft 88kts
11-Jan-19 14:23 33.707096 -117.960327 140 9017ft 91kts
11-Jan-19 14:24 33.686153 -117.936149 138 8998ft 107kts
11-Jan-19 14:25 33.664658 -117.912640 141 8998ft 102kts
11-Jan-19 14:26 33.645065 -117.890073 137 8998ft 92kts
11-Jan-19 14:27 33.626693 -117.869022 141 8996ft 85kts
11-Jan-19 14:28 33.610403 -117.849568 136 8994ft 80kts
11-Jan-19 14:29 33.594851 -117.830989 140 8997ft 78kts
11-Jan-19 14:30 33.579011 -117.812566 140 9018ft 83kts
11-Jan-19 14:31 33.556598 -117.787570 139 8605ft 124kts
11-Jan-19 14:32 33.531855 -117.758720 134 8110ft 126kts
11-Jan-19 14:33 33.506962 -117.728011 138 7616ft 128kts
11-Jan-19 14:34 33.482041 -117.698744 136 7192ft 120kts
11-Jan-19 14:35 33.458941 -117.671060 136 7032ft 110kts
11-Jan-19 14:36 33.436883 -117.646266 139 7033ft 111kts
11-Jan-19 14:37 33.414085 -117.619303 137 7033ft 114kts
11-Jan-19 14:38 33.396565 -117.598849 135 7030ft 115kts
11-Jan-19 14:39 33.374768 -117.573480 139 7041ft 112kts
11-Jan-19 14:40 33.352008 -117.547363 137 7029ft 113kts
11-Jan-19 14:41 33.329510 -117.520920 137 7028ft 113kts
11-Jan-19 14:42 33.306530 -117.494480 135 7030ft 111kts
11-Jan-19 14:43 33.284034 -117.467571 138 7030ft 117kts
11-Jan-19 14:44 33.260065 -117.440301 136 7036ft 120kts
11-Jan-19 14:45 33.235961 -117.416257 157 7039ft 111kts
11-Jan-19 14:46 33.206535 -117.402950 160 7034ft 113kts
11-Jan-19 14:47 33.177061 -117.390184 161 7033ft 112kts
11-Jan-19 14:48 33.148220 -117.378423 158 7033ft 110kts
11-Jan-19 14:49 33.119831 -117.366466 160 7033ft 105kts
11-Jan-19 14:50 33.091975 -117.354438 162 7024ft 110kts
11-Jan-19 14:51 33.062492 -117.342811 161 7035ft 111kts
11-Jan-19 14:52 33.033082 -117.330372 159 7031ft 111kts
11-Jan-19 14:53 33.004838 -117.317738 160 7033ft 106kts
11-Jan-19 14:54 32.977061 -117.305928 162 7045ft 105kts
11-Jan-19 14:55 32.949204 -117.294268 160 7034ft 108kts
11-Jan-19 14:56 32.920023 -117.282107 160 7026ft 114kts
11-Jan-19 14:57 32.889749 -117.269530 162 7038ft 121kts
11-Jan-19 14:58 32.858029 -117.256786 163 7031ft 109kts
11-Jan-19 14:59 32.828786 -117.243729 161 7037ft 120kts
11-Jan-19 15:00 32.816995 -117.207425 97 7025ft 130kts
11-Jan-19 15:01 32.813122 -117.163745 98 6517ft 130kts
11-Jan-19 15:02 32.809232 -117.122201 98 6026ft 133kts
11-Jan-19 15:03 32.804708 -117.077082 100 5521ft 134kts
11-Jan-19 15:04 32.798872 -117.034492 98 5021ft 130kts
11-Jan-19 15:05 32.785625 -116.999958 167 4138ft 106kts
11-Jan-19 15:06 32.763143 -117.012136 211 3376ft 77kts
11-Jan-19 15:07 32.745502 -117.025317 215 2814ft 84kts
11-Jan-19 15:08 32.722738 -117.035864 186 2675ft 80kts
11-Jan-19 15:09 32.699827 -117.046887 254 2547ft 114kts
11-Jan-19 15:10 32.704354 -117.084351 294 2048ft 114kts
11-Jan-19 15:11 32.716035 -117.118279 285 1603ft 116kts
11-Jan-19 15:12 32.723596 -117.149983 294 1116ft 64kts
11-Jan-19 15:13 32.729309 -117.170341 279 379ft 67kts
11-Jan-19 15:14 32.732585 -117.184304 344 15ft 9kts
11-Jan-19 15:15 32.733024 -117.184313 5 16ft 0kts
11-Jan-19 15:16 32.732767 -117.181314 108 16ft 3kts
11-Jan-19 15:17 32.732454 -117.178287 33 20ft 0kts
11-Jan-19 15:18 32.732454 -117.178287 33 20ft 0kts
11-Jan-19 15:19 32.732453 -117.178287 33 20ft 0kts
11-Jan-19 15:20 32.732453 -117.178287 33 20ft 0kts
11-Jan-19 15:21 32.732453 -117.178287 33 20ft 0kts
11-Jan-19 15:22 32.732453 -117.178287 33 20ft 0kts

Navigation Log

Ident Type
Flight plan parsing failed, navigation log unavailable